Time;durP1;ratioP1;P1;durP2;ratioP2;P2;SDS_P1;SDS_P2;PMS_P1;PMS_P2;Temp;Humidity;BMP_temperature;BMP_pressure;BME280_temperature;BME280_humidity;BME280_pressure;Samples;Min_cycle;Max_cycle;Signal;HPM_P1;HPM_P2
2023/10/18 00:00:59;;;;;;;3.70;3.50;;;;;;;5.45;100.00;100466.47;6018838;23;20029;-78
2023/10/18 00:03:32;;;;;;;5.28;4.82;;;;;;;5.89;100.00;100532.59;6010904;23;20062;-75
2023/10/18 00:06:03;;;;;;;4.03;3.83;;;;;;;5.97;100.00;100545.38;5997064;23;20180;-78
2023/10/18 00:08:30;;;;;;;5.38;4.97;;;;;;;6.14;100.00;100573.44;6018004;23;20046;-76
2023/10/18 00:10:59;;;;;;;4.40;4.20;;;;;;;5.37;100.00;100433.78;5995640;23;20030;-78
2023/10/18 00:13:26;;;;;;;7.55;4.22;;;;;;;5.88;100.00;100528.31;6019662;23;20458;-76
2023/10/18 00:15:59;;;;;;;4.53;4.13;;;;;;;5.96;100.00;100554.94;5987352;23;20804;-76
2023/10/18 00:18:25;;;;;;;4.18;3.95;;;;;;;5.65;100.00;100516.06;6015403;23;20027;-76
2023/10/18 00:20:59;;;;;;;3.97;3.78;;;;;;;4.94;100.00;100387.56;5986768;23;20097;-76
2023/10/18 00:23:27;;;;;;;4.00;3.80;;;;;;;5.93;100.00;100535.94;5988642;23;20098;-78
2023/10/18 00:25:54;;;;;;;4.25;3.95;;;;;;;5.59;100.00;100472.91;5965371;23;20051;-77
2023/10/18 00:28:20;;;;;;;4.57;4.18;;;;;;;5.99;100.00;100507.97;5988491;23;20063;-77
2023/10/18 00:30:49;;;;;;;6.07;5.57;;;;;;;5.41;100.00;100398.06;5985121;23;20012;-75
2023/10/18 00:33:20;;;;;;;4.95;4.65;;;;;;;5.43;100.00;100393.66;5961210;23;20099;-76
2023/10/18 00:35:47;;;;;;;4.53;4.22;;;;;;;5.56;100.00;100410.53;5993644;23;20018;-77
2023/10/18 00:38:18;;;;;;;4.20;3.90;;;;;;;5.60;100.00;100430.34;5977821;23;20055;-76
2023/10/18 00:40:45;;;;;;;4.90;4.60;;;;;;;4.82;100.00;100312.59;5987654;23;20070;-76
2023/10/18 00:45:47;;;;;;;5.03;4.57;;;;;;;5.28;100.00;100378.59;5992273;23;20023;-76
2023/10/18 00:48:16;;;;;;;4.22;4.03;;;;;;;5.34;100.00;100423.44;5972021;23;20061;-77
2023/10/18 00:50:43;;;;;;;5.53;5.22;;;;;;;5.04;100.00;100369.91;5994607;23;20110;-77
2023/10/18 00:53:19;;;;;;;4.70;4.32;;;;;;;5.26;100.00;100428.06;5996285;23;20030;-76
2023/10/18 00:55:57;;;;;;;4.15;3.80;;;;;;;5.39;100.00;100462.31;5972385;23;20646;-78
2023/10/18 00:58:24;;;;;;;4.20;3.90;;;;;;;5.47;100.00;100481.16;5969723;23;20054;-77
2023/10/18 01:00:51;;;;;;;4.10;3.90;;;;;;;5.30;100.00;100447.03;5971726;24;20028;-77
2023/10/18 01:03:41;;;;;;;3.80;3.60;;;;;;;5.47;100.00;100465.53;5996172;23;20034;-77
2023/10/18 01:06:17;;;;;;;3.95;3.75;;;;;;;5.33;100.00;100454.72;5997194;23;20627;-77
2023/10/18 01:08:47;;;;;;;5.35;5.05;;;;;;;5.39;100.00;100473.59;5967095;23;20023;-79
2023/10/18 01:11:18;;;;;;;3.90;3.70;;;;;;;4.86;100.00;100389.56;5952413;23;20031;-77
2023/10/18 01:13:45;;;;;;;4.15;3.88;;;;;;;4.82;100.00;100393.19;5996350;23;21694;-76
2023/10/18 01:16:22;;;;;;;4.65;4.45;;;;;;;5.09;100.00;100465.09;5968020;23;20075;-77
2023/10/18 01:18:50;;;;;;;4.82;4.50;;;;;;;5.34;100.00;100496.31;5970377;23;20429;-77
2023/10/18 01:21:21;;;;;;;4.00;3.80;;;;;;;5.36;100.00;100522.28;5964010;24;20050;-77
2023/10/18 01:23:53;;;;;;;4.15;3.85;;;;;;;4.92;100.00;100438.78;6013153;23;20056;-77
2023/10/18 01:26:22;;;;;;;3.95;3.75;;;;;;;5.40;100.00;100503.91;5995065;23;20510;-78
2023/10/18 01:28:51;;;;;;;5.82;5.28;;;;;;;3.75;100.00;100238.16;6020812;23;20041;-77
2023/10/18 01:31:18;;;;;;;3.92;3.63;;;;;;;4.63;100.00;100373.00;6025948;23;20102;-77
2023/10/18 01:33:47;;;;;;;3.53;3.33;;;;;;;5.02;100.00;100418.53;6000404;23;20078;-77
2023/10/18 01:36:15;;;;;;;3.60;3.50;;;;;;;4.96;100.00;100402.22;6024387;23;20107;-75
2023/10/18 01:38:44;;;;;;;5.53;5.22;;;;;;;4.94;100.00;100387.56;6014550;23;20034;-76
2023/10/18 01:41:25;;;;;;;3.67;3.47;;;;;;;4.97;100.00;100382.25;5994394;23;20054;-76
2023/10/18 01:43:52;;;;;;;5.03;4.72;;;;;;;5.51;100.00;100442.81;5994723;23;20254;-77
2023/10/18 01:46:18;;;;;;;3.88;3.67;;;;;;;5.13;100.00;100392.97;5989628;23;20481;-76
2023/10/18 01:48:51;;;;;;;5.03;4.82;;;;;;;4.76;100.00;100337.03;6023716;23;20101;-76
2023/10/18 01:51:19;;;;;;;3.63;3.42;;;;;;;5.33;100.00;100416.56;6018522;23;20061;-77
2023/10/18 01:53:46;;;;;;;4.15;3.85;;;;;;;5.22;100.00;100397.03;6022593;23;20075;-76
2023/10/18 01:56:14;;;;;;;3.78;3.58;;;;;;;5.22;100.00;100397.88;5993091;23;20035;-77
2023/10/18 01:58:41;;;;;;;4.65;4.45;;;;;;;4.67;100.00;100282.75;5995700;23;20078;-77
2023/10/18 02:01:10;;;;;;;3.45;3.28;;;;;;;5.63;100.00;100416.34;6029069;23;20043;-77
2023/10/18 02:03:39;;;;;;;3.80;3.60;;;;;;;4.64;100.00;100243.88;6019883;23;20152;-78
2023/10/18 02:06:09;;;;;;;3.60;3.40;;;;;;;4.88;100.00;100299.38;5998015;23;20039;-76
2023/10/18 02:08:36;;;;;;;4.57;4.38;;;;;;;5.24;100.00;100353.59;6012290;23;20041;-76
2023/10/18 02:11:07;;;;;;;3.70;3.55;;;;;;;5.50;100.00;100422.91;6021922;23;20654;-77
2023/10/18 02:13:34;;;;;;;4.03;3.83;;;;;;;5.53;100.00;100415.00;6023904;23;20058;-77
2023/10/18 02:16:00;;;;;;;3.47;3.28;;;;;;;5.14;100.00;100364.31;5992269;23;20007;-77
2023/10/18 02:18:27;;;;;;;4.85;4.05;;;;;;;5.33;100.00;100392.28;5996468;23;20040;-75
2023/10/18 02:20:54;;;;;;;4.05;3.78;;;;;;;4.16;100.00;100189.19;6017114;23;20325;-79
2023/10/18 02:23:23;;;;;;;5.15;4.85;;;;;;;5.35;100.00;100373.13;6018178;23;20058;-77
2023/10/18 02:25:50;;;;;;;4.10;3.80;;;;;;;5.39;100.00;100368.63;5992715;23;20031;-76
2023/10/18 02:28:23;;;;;;;3.88;3.67;;;;;;;5.64;100.00;100372.97;5969082;23;20051;-76
2023/10/18 02:36:11;;;;;;;3.90;3.67;;;;;;;4.78;100.00;100153.25;5993249;23;20095;-77
2023/10/18 02:38:41;;;;;;;4.55;4.35;;;;;;;5.97;100.00;100326.59;5992056;23;20101;-77
2023/10/18 02:41:21;;;;;;;3.78;3.58;;;;;;;5.43;100.00;100242.72;6000253;23;20031;-76
2023/10/18 02:43:51;;;;;;;3.90;3.70;;;;;;;6.00;100.00;100321.28;5995891;23;20037;-76
2023/10/18 02:46:24;;;;;;;5.78;4.40;;;;;;;5.72;100.00;100261.56;5994115;23;20100;-76
2023/10/18 02:48:52;;;;;;;4.10;3.90;;;;;;;5.34;100.00;100198.84;6018494;23;20134;-77
2023/10/18 02:51:22;;;;;;;4.25;4.00;;;;;;;5.98;100.00;100303.09;5985234;23;20033;-75
2023/10/18 02:53:51;;;;;;;4.13;3.90;;;;;;;5.90;100.00;100297.31;6024473;23;20039;-78
2023/10/18 02:56:20;;;;;;;4.30;3.90;;;;;;;5.45;100.00;100232.25;6021839;23;20548;-76
2023/10/18 02:58:47;;;;;;;5.35;5.05;;;;;;;4.61;100.00;100083.72;5992077;23;20017;-77
2023/10/18 03:01:21;;;;;;;4.53;4.22;;;;;;;5.04;100.00;100157.47;5991048;23;20625;-76
2023/10/18 03:03:54;;;;;;;4.10;3.80;;;;;;;5.25;100.00;100201.78;6015858;23;20032;-75
2023/10/18 03:06:24;;;;;;;3.75;3.55;;;;;;;5.43;100.00;100232.28;6018801;23;20023;-75
2023/10/18 03:08:51;;;;;;;3.42;3.33;;;;;;;5.42;100.00;100238.41;6016765;23;20053;-78
2023/10/18 03:11:20;;;;;;;4.30;4.00;;;;;;;5.73;100.00;100305.78;6022430;23;20031;-77
2023/10/18 03:13:48;;;;;;;3.90;3.70;;;;;;;5.69;100.00;100293.78;6020568;23;20033;-77
2023/10/18 03:16:15;;;;;;;4.00;3.70;;;;;;;5.20;100.00;100195.00;5990642;23;20046;-74
2023/10/18 03:18:44;;;;;;;4.75;4.55;;;;;;;5.49;100.00;100247.72;6019427;23;20034;-78
2023/10/18 03:21:32;;;;;;;3.55;3.25;;;;;;;5.51;100.00;100248.50;6018272;23;20606;-76
2023/10/18 03:24:01;;;;;;;3.45;3.30;;;;;;;5.18;100.00;100207.22;6019102;23;20037;-76
2023/10/18 03:26:37;;;;;;;4.57;4.28;;;;;;;5.18;100.00;100225.44;5997315;23;20948;-76
2023/10/18 03:29:15;;;;;;;3.90;3.70;;;;;;;5.59;100.00;100298.50;6022739;23;20065;-77
2023/10/18 03:31:43;;;;;;;4.22;3.75;;;;;;;5.59;100.00;100293.28;5995962;23;20034;-75
2023/10/18 03:34:29;;;;;;;4.28;3.97;;;;;;;5.64;100.00;100287.06;6019698;23;20058;-75
2023/10/18 03:36:55;;;;;;;3.80;3.60;;;;;;;5.04;100.00;100186.09;5995785;23;20030;-77
2023/10/18 03:39:25;;;;;;;3.53;3.33;;;;;;;4.50;100.00;100091.91;6011994;23;20034;-75
2023/10/18 03:41:53;;;;;;;3.90;3.70;;;;;;;4.06;100.00;100019.03;5992739;23;20437;-77
2023/10/18 03:44:32;;;;;;;3.67;3.47;;;;;;;5.42;100.00;100254.03;6026009;23;20042;-76
2023/10/18 03:47:05;;;;;;;4.65;4.35;;;;;;;4.68;100.00;100131.97;5985107;23;20043;-78
2023/10/18 03:49:36;;;;;;;3.90;3.70;;;;;;;4.79;100.00;100135.00;6021168;23;20515;-76
2023/10/18 03:52:16;;;;;;;4.03;3.83;;;;;;;5.63;100.00;100251.50;5967023;23;20037;-76
2023/10/18 03:54:57;;;;;;;11.40;5.35;;;;;;;5.69;100.00;100248.66;5994742;23;20058;-76
2023/10/18 03:57:37;;;;;;;4.18;3.88;;;;;;;4.59;100.00;100062.13;5993923;23;20077;-77
2023/10/18 04:02:53;;;;;;;7.00;4.53;;;;;;;5.52;100.00;100213.72;5989564;23;20047;-76
2023/10/18 04:05:35;;;;;;;3.97;3.78;;;;;;;5.18;100.00;100147.41;5997718;23;20027;-77
2023/10/18 04:08:04;;;;;;;3.25;3.15;;;;;;;5.44;100.00;100197.56;6019552;23;20035;-77
2023/10/18 04:10:35;;;;;;;3.92;3.72;;;;;;;5.35;100.00;100164.97;6018092;23;20347;-77
2023/10/18 04:13:04;;;;;;;4.03;3.83;;;;;;;4.75;100.00;100072.78;5996484;23;20118;-76
2023/10/18 04:15:37;;;;;;;4.40;4.10;;;;;;;5.29;100.00;100161.72;6022935;23;20426;-76
2023/10/18 04:20:37;;;;;;;4.93;4.53;;;;;;;5.38;100.00;100150.97;6011168;23;20087;-78
2023/10/18 04:23:14;;;;;;;3.75;3.55;;;;;;;5.27;100.00;100122.78;5993590;23;20057;-77
2023/10/18 04:25:42;;;;;;;4.50;4.20;;;;;;;3.89;100.00;99931.41;6023644;23;20071;-76
2023/10/18 04:28:10;;;;;;;7.43;4.13;;;;;;;5.08;100.00;100109.66;5991070;23;20139;-77
2023/10/18 04:30:38;;;;;;;4.95;4.65;;;;;;;4.35;100.00;99984.22;5991847;23;20026;-76
2023/10/18 04:35:44;;;;;;;4.50;4.20;;;;;;;5.14;100.00;100078.19;6026067;23;21440;-77
2023/10/18 04:38:30;;;;;;;4.13;3.83;;;;;;;5.75;100.00;100168.56;6020585;23;21450;-76
2023/10/18 04:41:08;;;;;;;3.83;3.60;;;;;;;5.64;100.00;100133.47;6026630;23;20023;-75
2023/10/18 04:43:35;;;;;;;3.90;3.70;;;;;;;5.26;99.58;100034.41;5997690;23;20051;-76
2023/10/18 04:46:14;;;;;;;3.67;3.47;;;;;;;5.52;98.06;100039.34;6023856;23;20017;-78
2023/10/18 04:48:59;;;;;;;5.13;4.75;;;;;;;5.78;97.68;100055.63;5998934;23;20030;-76
2023/10/18 04:51:28;;;;;;;3.22;3.10;;;;;;;5.67;97.06;100016.19;6021114;23;20418;-77
2023/10/18 04:54:00;;;;;;;4.05;3.75;;;;;;;5.96;96.88;100047.06;6024703;23;20086;-75
2023/10/18 04:56:42;;;;;;;4.17;3.87;;;;;;;5.35;95.99;99962.03;5991194;23;20024;-78
2023/10/18 04:59:59;;;;;;;4.23;3.93;;;;;;;5.90;97.41;100041.25;5998357;23;20094;-78
2023/10/18 05:01:58;;;;;;;5.78;3.90;;;;;;;5.63;97.53;100022.44;5983224;23;20277;-75
2023/10/18 05:04:34;;;;;;;4.38;4.07;;;;;;;5.56;97.04;100019.25;6015905;23;20544;-76
2023/10/18 05:07:15;;;;;;;4.47;4.07;;;;;;;5.49;98.54;100020.41;6002044;23;20050;-76
2023/10/18 05:09:43;;;;;;;3.88;3.65;;;;;;;5.53;98.43;100048.00;6016682;23;20092;-77
2023/10/18 05:17:49;;;;;;;4.45;4.15;;;;;;;4.87;98.39;99933.69;5992036;23;20052;-76
2023/10/18 05:22:59;;;;;;;4.65;4.45;;;;;;;5.56;99.24;100073.91;6012027;23;20028;-76
2023/10/18 05:25:34;;;;;;;3.95;3.75;;;;;;;5.41;100.00;100085.78;5973176;23;20034;-74
2023/10/18 05:28:03;;;;;;;4.07;3.80;;;;;;;5.14;99.76;100035.72;6018721;23;20035;-76
2023/10/18 05:38:48;;;;;;;5.32;5.03;;;;;;;5.39;100.00;100066.78;6017211;23;21963;-75
2023/10/18 05:41:29;;;;;;;4.03;3.72;;;;;;;5.51;100.00;100092.34;6020740;23;20093;-76
2023/10/18 05:43:59;;;;;;;4.03;3.72;;;;;;;5.30;100.00;100077.59;5994935;23;20023;-76
2023/10/18 05:46:34;;;;;;;3.80;3.60;;;;;;;5.54;100.00;100113.00;5994708;23;20029;-76
2023/10/18 05:49:01;;;;;;;4.18;3.85;;;;;;;5.50;100.00;100110.59;6020532;23;20038;-78
2023/10/18 05:51:34;;;;;;;3.88;3.67;;;;;;;4.96;100.00;100039.91;5997903;23;20051;-77
2023/10/18 05:54:08;;;;;;;3.72;3.53;;;;;;;5.10;100.00;100080.97;6005468;23;20022;-77
2023/10/18 05:56:34;;;;;;;5.03;4.72;;;;;;;5.29;100.00;100107.09;5994573;23;20011;-77
2023/10/18 06:01:43;;;;;;;4.78;4.22;;;;;;;5.10;100.00;100123.44;5990208;23;20030;-75
2023/10/18 06:04:13;;;;;;;4.97;4.05;;;;;;;5.29;100.00;100143.53;6013409;23;20088;-75
2023/10/18 06:06:40;;;;;;;5.25;4.88;;;;;;;4.66;100.00;100042.78;5992491;23;20070;-76
2023/10/18 06:09:26;;;;;;;3.97;3.78;;;;;;;5.24;100.00;100148.91;6011903;23;20011;-77
2023/10/18 06:11:55;;;;;;;3.90;3.63;;;;;;;5.06;100.00;100111.47;5992026;23;20034;-76
2023/10/18 06:14:33;;;;;;;3.80;3.60;;;;;;;5.36;100.00;100163.19;6017044;23;20042;-75
2023/10/18 06:17:12;;;;;;;4.10;3.90;;;;;;;4.65;100.00;100059.31;5993507;23;20051;-75
2023/10/18 06:19:41;;;;;;;4.10;3.90;;;;;;;4.00;100.00;99947.41;5996986;23;20050;-76
2023/10/18 06:22:15;;;;;;;4.07;3.85;;;;;;;4.73;100.00;100069.38;6024478;23;20054;-76
2023/10/18 06:24:45;;;;;;;5.82;5.32;;;;;;;5.35;100.00;100174.50;6022688;23;20122;-74
2023/10/18 06:27:15;;;;;;;3.80;3.60;;;;;;;4.93;100.00;100099.81;5990352;23;20031;-76
2023/10/18 06:29:44;;;;;;;5.25;4.20;;;;;;;5.43;100.00;100156.84;6028173;23;20058;-75
2023/10/18 06:32:15;;;;;;;4.10;3.80;;;;;;;5.46;100.00;100156.72;5995619;23;20031;-75
2023/10/18 06:34:45;;;;;;;7.28;6.75;;;;;;;5.22;100.00;100113.47;6015141;23;20102;-76
2023/10/18 06:37:40;;;;;;;4.70;4.40;;;;;;;5.19;100.00;100107.47;5997906;23;20095;-76
2023/10/18 06:40:21;;;;;;;3.80;3.60;;;;;;;5.34;100.00;100146.81;6025121;23;20041;-74
2023/10/18 06:42:48;;;;;;;4.78;4.57;;;;;;;5.31;100.00;100137.38;6016497;23;20411;-76
2023/10/18 06:45:17;;;;;;;4.72;4.43;;;;;;;5.64;100.00;100154.31;5989304;23;20097;-75
2023/10/18 06:47:45;;;;;;;4.28;3.97;;;;;;;5.48;100.00;100113.25;6016684;23;20021;-76
2023/10/18 06:50:11;;;;;;;4.18;3.88;;;;;;;5.07;100.00;100018.66;6025339;23;20520;-78
2023/10/18 06:52:44;;;;;;;6.38;5.88;;;;;;;5.22;100.00;100051.88;5994453;23;20046;-74
2023/10/18 06:55:17;;;;;;;4.00;3.80;;;;;;;5.57;100.00;100089.47;6022684;23;20030;-76
2023/10/18 06:57:43;;;;;;;3.83;3.63;;;;;;;5.81;100.00;100097.16;5991222;23;20046;-76
2023/10/18 07:00:11;;;;;;;4.65;4.18;;;;;;;5.61;100.00;100027.69;5998495;23;20512;-76
2023/10/18 07:02:38;;;;;;;5.35;5.05;;;;;;;5.72;99.24;100006.44;5989742;23;20043;-74
2023/10/18 07:05:08;;;;;;;4.93;4.53;;;;;;;6.02;98.04;100016.47;6018953;23;20042;-76
2023/10/18 07:07:34;;;;;;;4.72;4.30;;;;;;;6.05;96.83;99975.47;6011312;23;20033;-75
2023/10/18 07:10:04;;;;;;;3.92;3.60;;;;;;;5.98;94.79;99906.34;6022300;23;20090;-77
2023/10/18 07:12:44;;;;;;;4.32;4.03;;;;;;;6.47;94.27;99937.91;6012664;23;20019;-75
2023/10/18 07:15:15;;;;;;;4.18;3.92;;;;;;;6.71;92.22;99941.13;5996745;23;20130;-75
2023/10/18 07:17:47;;;;;;;5.10;4.73;;;;;;;6.68;92.65;99894.34;6021701;23;20030;-76
2023/10/18 07:20:16;;;;;;;4.57;4.20;;;;;;;6.39;91.02;99817.56;5990205;23;20654;-74
2023/10/18 07:22:46;;;;;;;5.68;5.28;;;;;;;6.77;90.18;99856.53;5995935;23;20043;-76
2023/10/18 07:25:20;;;;;;;4.47;4.20;;;;;;;6.57;89.80;99821.03;6002170;23;20085;-75
2023/10/18 07:27:47;;;;;;;5.40;5.03;;;;;;;6.99;88.27;99822.38;6017518;23;20544;-78
2023/10/18 07:30:15;;;;;;;4.88;4.57;;;;;;;6.84;88.39;99786.69;5993429;23;20027;-72
2023/10/18 07:32:47;;;;;;;5.82;5.47;;;;;;;7.06;87.33;99808.13;6012756;23;20089;-72
2023/10/18 07:35:26;;;;;;;6.47;4.97;;;;;;;7.10;86.66;99770.50;6015837;23;20088;-74
2023/10/18 07:37:55;;;;;;;4.75;4.35;;;;;;;7.04;87.27;99747.34;6016020;23;21040;-73
2023/10/18 07:40:23;;;;;;;5.03;4.47;;;;;;;6.95;86.30;99709.53;6011503;23;20058;-75
2023/10/18 07:42:51;;;;;;;4.90;4.60;;;;;;;6.94;85.78;99713.06;5994002;23;20084;-75
2023/10/18 07:45:21;;;;;;;5.00;4.70;;;;;;;6.98;85.09;99719.81;5992033;23;20098;-74
2023/10/18 07:47:54;;;;;;;5.10;4.68;;;;;;;7.35;84.92;99737.88;6026371;23;20472;-75
2023/10/18 07:53:06;;;;;;;4.82;4.53;;;;;;;6.98;84.30;99662.44;6030223;23;20015;-75
2023/10/18 07:55:42;;;;;;;4.32;4.13;;;;;;;7.48;84.51;99725.84;6024203;23;20034;-75
2023/10/18 07:58:22;;;;;;;4.88;4.55;;;;;;;7.43;84.13;99709.56;5996415;23;20461;-74
2023/10/18 08:01:51;;;;;;;5.70;5.30;;;;;;;7.82;83.09;99730.94;6020758;23;20026;-77
2023/10/18 08:03:45;;;;;;;4.45;4.15;;;;;;;7.87;82.61;99723.69;5979500;23;20035;-76
2023/10/18 08:06:25;;;;;;;5.85;4.68;;;;;;;7.89;82.72;99712.22;6020966;23;20048;-74
2023/10/18 08:08:52;;;;;;;5.28;4.88;;;;;;;7.19;81.96;99586.50;5972057;23;20034;-73
2023/10/18 08:11:18;;;;;;;7.45;4.40;;;;;;;6.58;82.46;99520.34;6020339;23;20031;-72
2023/10/18 08:13:45;;;;;;;4.40;4.10;;;;;;;8.03;83.17;99765.47;5997433;23;20037;-74
2023/10/18 08:16:19;;;;;;;6.00;5.53;;;;;;;7.87;83.29;99758.50;6019207;23;20033;-73
2023/10/18 08:18:53;;;;;;;7.00;6.45;;;;;;;8.08;83.31;99772.13;5989163;23;20035;-73
2023/10/18 08:21:36;;;;;;;4.82;4.43;;;;;;;8.16;83.25;99790.84;5998749;23;20225;-71
2023/10/18 08:24:25;;;;;;;5.30;4.82;;;;;;;8.35;81.89;99777.53;6018055;23;20058;-74
2023/10/18 08:26:52;;;;;;;5.65;5.15;;;;;;;8.03;82.48;99718.44;6023990;23;20840;-75
2023/10/18 08:29:18;;;;;;;4.80;4.50;;;;;;;8.15;83.50;99781.28;5993197;23;20086;-76
2023/10/18 08:32:03;;;;;;;5.03;4.72;;;;;;;7.41;82.69;99616.63;6001788;23;20038;-77
2023/10/18 08:34:31;;;;;;;5.22;4.85;;;;;;;8.17;81.46;99674.06;5996315;23;20082;-73
2023/10/18 08:37:06;;;;;;;4.63;4.32;;;;;;;8.24;81.42;99701.53;5987711;23;20027;-71
2023/10/18 08:39:32;;;;;;;5.35;5.05;;;;;;;8.41;81.11;99702.31;6026990;23;20096;-74
2023/10/18 08:42:17;;;;;;;5.22;4.82;;;;;;;8.85;79.77;99723.19;5994815;23;20083;-74
2023/10/18 08:44:45;;;;;;;6.18;5.78;;;;;;;8.90;80.33;99733.38;5992501;23;21381;-74
2023/10/18 08:47:12;;;;;;;5.05;4.68;;;;;;;9.15;80.57;99780.69;5999909;23;20088;-74
2023/10/18 08:49:51;;;;;;;6.15;5.65;;;;;;;9.03;79.10;99700.31;5995236;23;20027;-76
2023/10/18 08:52:23;;;;;;;5.00;4.70;;;;;;;9.31;79.29;99732.63;6019614;23;20090;-77
2023/10/18 08:54:51;;;;;;;6.50;5.90;;;;;;;9.31;78.36;99693.34;6019648;23;20042;-76
2023/10/18 08:57:36;;;;;;;6.13;5.07;;;;;;;9.37;79.51;99745.34;6020572;23;20105;-77
2023/10/18 09:01:02;;;;;;;6.22;4.80;;;;;;;9.09;77.57;99631.88;6021078;23;20041;-76
2023/10/18 09:03:07;;;;;;;5.65;5.20;;;;;;;9.54;76.77;99647.34;5995476;23;20027;-72
2023/10/18 09:05:35;;;;;;;10.18;5.35;;;;;;;9.36;76.60;99625.81;5995742;23;20647;-74
2023/10/18 09:08:05;;;;;;;5.20;4.70;;;;;;;9.35;75.81;99571.78;6020266;23;20082;-75
2023/10/18 09:16:01;;;;;;;6.32;5.80;;;;;;;9.60;76.04;99654.81;6018885;23;20411;-77
2023/10/18 09:18:32;;;;;;;5.88;5.22;;;;;;;9.51;75.29;99598.63;5998273;23;20094;-78
2023/10/18 09:23:42;;;;;;;5.38;4.95;;;;;;;9.90;73.66;99548.91;6018905;23;20018;-72
2023/10/18 09:26:18;;;;;;;7.78;5.05;;;;;;;8.60;73.05;99334.19;6001163;23;20101;-74
2023/10/18 09:28:46;;;;;;;6.18;5.68;;;;;;;9.89;73.89;99583.94;6019716;23;20081;-75
2023/10/18 09:31:19;;;;;;;6.47;5.78;;;;;;;10.64;72.92;99648.78;6002173;23;20029;-76
2023/10/18 09:33:49;;;;;;;6.07;5.63;;;;;;;10.64;72.59;99605.03;6003429;23;20026;-73
2023/10/18 09:36:19;;;;;;;5.75;5.20;;;;;;;10.93;70.77;99562.78;6018366;23;20034;-76
2023/10/18 09:38:48;;;;;;;6.20;5.80;;;;;;;10.48;69.29;99431.31;6021482;23;20094;-74
2023/10/18 09:41:15;;;;;;;6.47;5.20;;;;;;;10.43;70.42;99462.28;6022488;23;20022;-74
2023/10/18 09:43:43;;;;;;;5.78;5.35;;;;;;;10.68;70.29;99492.81;5998457;23;20044;-75
2023/10/18 09:46:13;;;;;;;6.25;5.75;;;;;;;10.86;69.16;99446.03;6033271;23;20042;-76
2023/10/18 09:48:42;;;;;;;8.65;5.40;;;;;;;11.23;69.15;99545.75;5993831;23;20109;-74
2023/10/18 09:51:10;;;;;;;5.90;5.50;;;;;;;11.30;68.41;99523.31;6028749;23;20701;-77
2023/10/18 09:53:43;;;;;;;5.60;5.20;;;;;;;11.46;68.98;99555.38;5992248;23;20281;-73
2023/10/18 09:56:14;;;;;;;6.07;5.57;;;;;;;11.41;67.64;99456.88;6022128;23;20058;-74
2023/10/18 09:58:44;;;;;;;9.30;6.22;;;;;;;11.20;66.94;99383.16;5991083;23;20046;-77
2023/10/18 10:01:53;;;;;;;4.95;4.65;;;;;;;11.67;67.20;99503.00;6020527;23;20051;-76
2023/10/18 10:04:21;;;;;;;6.05;5.43;;;;;;;11.81;65.46;99394.19;6028260;23;20031;-75
2023/10/18 10:06:53;;;;;;;8.18;6.95;;;;;;;11.52;65.66;99360.50;6019819;23;20041;-75
2023/10/18 10:09:28;;;;;;;5.55;5.15;;;;;;;11.49;63.99;99262.72;5999457;23;20037;-75
2023/10/18 10:11:55;;;;;;;10.13;5.57;;;;;;;11.35;64.39;99318.94;6022526;23;20465;-75
2023/10/18 10:14:22;;;;;;;6.47;5.88;;;;;;;11.37;65.86;99352.00;6026397;23;20112;-75
2023/10/18 10:17:01;;;;;;;6.40;5.88;;;;;;;12.04;64.07;99391.56;6020997;23;20031;-74
2023/10/18 10:19:31;;;;;;;6.53;5.90;;;;;;;12.11;62.51;99251.59;5997250;23;20127;-75
2023/10/18 10:22:04;;;;;;;6.10;5.70;;;;;;;11.87;62.75;99304.34;6019373;23;20023;-75
2023/10/18 10:24:51;;;;;;;5.45;5.05;;;;;;;12.08;62.58;99295.69;6021085;23;20031;-76
2023/10/18 10:32:52;;;;;;;5.97;5.57;;;;;;;12.20;62.23;99346.47;6022103;23;20101;-75
2023/10/18 10:35:24;;;;;;;6.00;5.38;;;;;;;12.27;61.91;99326.63;5989467;23;20057;-74
2023/10/18 10:37:55;;;;;;;6.13;5.70;;;;;;;12.30;62.69;99371.91;6018153;23;20545;-75
2023/10/18 10:43:16;;;;;;;5.57;5.07;;;;;;;12.42;62.28;99388.50;6019628;23;20042;-74
2023/10/18 10:48:30;;;;;;;6.18;5.72;;;;;;;12.36;62.23;99381.09;6018870;23;20037;-74
2023/10/18 10:50:57;;;;;;;5.93;5.53;;;;;;;12.47;62.19;99406.53;6013932;23;20537;-74
2023/10/18 10:53:34;;;;;;;5.68;5.18;;;;;;;12.61;62.84;99487.88;6022869;23;20046;-75
2023/10/18 10:56:17;;;;;;;5.40;4.90;;;;;;;12.89;62.24;99443.47;6016455;23;20030;-73
2023/10/18 10:58:54;;;;;;;6.47;6.03;;;;;;;12.47;60.84;99303.91;5997638;23;20041;-75
2023/10/18 11:01:43;;;;;;;5.68;5.25;;;;;;;12.08;61.04;99225.53;6018994;23;20018;-75
2023/10/18 11:04:27;;;;;;;5.22;4.90;;;;;;;12.73;60.12;99328.94;5972099;23;20034;-77
2023/10/18 11:07:01;;;;;;;6.35;5.72;;;;;;;13.04;60.36;99336.06;6018605;23;20532;-75
2023/10/18 11:09:50;;;;;;;5.72;5.32;;;;;;;13.18;61.01;99441.91;5996691;23;20508;-74
2023/10/18 11:12:18;;;;;;;7.00;6.43;;;;;;;13.02;61.50;99399.38;6019161;23;20039;-73
2023/10/18 11:14:50;;;;;;;6.55;6.15;;;;;;;12.78;60.27;99310.09;6010741;23;20939;-73
2023/10/18 11:19:43;;;;;;;5.63;5.20;;;;;;;13.05;59.72;99303.47;5992959;23;20027;-77
2023/10/18 11:22:15;;;;;;;5.10;4.80;;;;;;;12.96;58.77;99232.19;6016382;23;20023;-75
2023/10/18 11:24:42;;;;;;;6.33;6.03;;;;;;;13.39;59.86;99375.25;6011615;23;20035;-74
2023/10/18 11:27:09;;;;;;;4.88;4.63;;;;;;;13.07;58.06;99225.16;5984314;23;20039;-75
2023/10/18 11:29:41;;;;;;;5.30;4.90;;;;;;;13.43;58.09;99280.94;5998211;23;20543;-74
2023/10/18 11:32:18;;;;;;;5.15;4.85;;;;;;;13.62;58.73;99396.19;5965303;23;20402;-73
2023/10/18 11:34:45;;;;;;;6.90;6.35;;;;;;;13.70;57.64;99307.53;6021570;23;20027;-71
2023/10/18 11:37:34;;;;;;;5.47;5.07;;;;;;;13.80;57.21;99297.03;5993483;23;20030;-76
2023/10/18 11:40:14;;;;;;;5.47;5.07;;;;;;;13.56;57.33;99268.38;6017493;23;20050;-77
2023/10/18 11:42:53;;;;;;;6.07;5.68;;;;;;;13.42;57.20;99216.88;5999289;23;20593;-75
2023/10/18 11:45:21;;;;;;;4.90;4.60;;;;;;;13.51;55.95;99170.41;6026964;23;20058;-71
2023/10/18 11:47:51;;;;;;;5.78;5.00;;;;;;;13.31;55.99;99159.00;5995751;23;20031;-72
2023/10/18 11:50:23;;;;;;;5.80;5.40;;;;;;;13.51;56.76;99254.75;6014826;23;20441;-72
2023/10/18 11:52:52;;;;;;;6.68;5.03;;;;;;;13.43;57.36;99287.06;6022790;23;20311;-73
2023/10/18 11:55:20;;;;;;;5.50;5.10;;;;;;;13.68;56.64;99295.47;6014586;23;20018;-74
2023/10/18 11:57:49;;;;;;;5.53;5.13;;;;;;;13.40;56.99;99242.53;6020530;23;20192;-73
2023/10/18 12:00:26;;;;;;;6.32;5.72;;;;;;;13.55;56.23;99259.63;6018712;23;20061;-72
2023/10/18 12:02:55;;;;;;;5.63;5.22;;;;;;;12.83;56.68;99146.50;6015035;23;20407;-74
2023/10/18 12:05:27;;;;;;;5.57;5.18;;;;;;;13.62;56.25;99261.72;5994801;23;20027;-74
2023/10/18 12:08:01;;;;;;;5.10;4.80;;;;;;;13.40;57.36;99268.03;6015692;23;20540;-74
2023/10/18 12:10:36;;;;;;;5.47;5.15;;;;;;;13.06;57.35;99216.44;5963411;23;20039;-73
2023/10/18 12:13:07;;;;;;;5.72;5.32;;;;;;;13.66;56.60;99265.75;6015457;23;20022;-73
2023/10/18 12:15:34;;;;;;;5.20;4.80;;;;;;;13.64;57.41;99284.34;5982285;23;20037;-73
2023/10/18 12:18:04;;;;;;;7.05;5.13;;;;;;;14.04;56.60;99266.81;6022364;23;20019;-73
2023/10/18 12:20:35;;;;;;;5.13;4.72;;;;;;;13.86;56.84;99242.91;6013248;23;20095;-77
2023/10/18 12:23:02;;;;;;;5.20;4.90;;;;;;;14.21;55.83;99257.34;5992814;23;20069;-74
2023/10/18 12:25:29;;;;;;;5.13;4.82;;;;;;;13.94;56.58;99199.03;6010597;23;20026;-74
2023/10/18 12:27:55;;;;;;;5.30;5.00;;;;;;;14.67;56.11;99284.88;5992418;23;20019;-71
2023/10/18 12:30:28;;;;;;;5.90;5.40;;;;;;;14.23;55.23;99163.06;6019220;23;20487;-75
2023/10/18 12:32:58;;;;;;;5.75;5.35;;;;;;;14.73;55.08;99256.09;6017391;23;20039;-75
2023/10/18 12:35:28;;;;;;;5.47;5.18;;;;;;;14.59;55.83;99237.22;5998293;23;20027;-77
2023/10/18 12:37:55;;;;;;;5.22;4.93;;;;;;;14.58;54.48;99154.56;6023329;23;20086;-73
2023/10/18 12:40:39;;;;;;;5.18;4.88;;;;;;;14.09;54.70;99099.22;6025455;23;20046;-75
2023/10/18 12:43:06;;;;;;;6.03;5.47;;;;;;;14.00;54.29;99049.13;6020319;23;20019;-74
2023/10/18 12:45:45;;;;;;;5.20;4.80;;;;;;;14.70;52.82;99132.28;6000656;23;20038;-78
2023/10/18 12:48:14;;;;;;;5.75;5.35;;;;;;;14.40;52.93;99077.06;5997819;23;20024;-73
2023/10/18 12:50:45;;;;;;;6.45;6.05;;;;;;;14.65;54.38;99220.81;6027488;23;20003;-76
2023/10/18 12:53:36;;;;;;;5.28;4.93;;;;;;;14.44;54.81;99186.66;6025424;23;20030;-73